sensor_id;sensor_type;location;lat;lon;timestamp;temperature;humidity
48988;DHT22;34799;51.440;-2.534;2024-03-08T06:02:49;5.30;99.90
48988;DHT22;34799;51.440;-2.534;2024-03-08T07:32:40;5.60;99.90
48988;DHT22;34799;51.440;-2.534;2024-03-08T09:39:43;7.00;99.90
48988;DHT22;34799;51.440;-2.534;2024-03-08T09:59:48;7.30;99.90
48988;DHT22;34799;51.440;-2.534;2024-03-08T10:02:16;7.60;99.90
48988;DHT22;34799;51.440;-2.534;2024-03-08T10:04:43;7.60;99.90
48988;DHT22;34799;51.440;-2.534;2024-03-08T10:07:13;7.50;99.90
48988;DHT22;34799;51.440;-2.534;2024-03-08T10:09:40;7.90;99.90
48988;DHT22;34799;51.440;-2.534;2024-03-08T10:12:18;8.60;99.90
48988;DHT22;34799;51.440;-2.534;2024-03-08T10:14:47;7.90;99.90
48988;DHT22;34799;51.440;-2.534;2024-03-08T10:17:14;7.70;99.90
48988;DHT22;34799;51.440;-2.534;2024-03-08T10:19:51;8.00;99.90
48988;DHT22;34799;51.440;-2.534;2024-03-08T10:22:20;7.80;99.90
48988;DHT22;34799;51.440;-2.534;2024-03-08T10:24:48;8.00;99.90
48988;DHT22;34799;51.440;-2.534;2024-03-08T10:27:17;8.30;99.90
48988;DHT22;34799;51.440;-2.534;2024-03-08T10:29:51;8.20;99.90
48988;DHT22;34799;51.440;-2.534;2024-03-08T10:32:20;8.60;99.90
48988;DHT22;34799;51.440;-2.534;2024-03-08T10:34:47;8.50;99.90
48988;DHT22;34799;51.440;-2.534;2024-03-08T10:37:21;8.50;99.90
48988;DHT22;34799;51.440;-2.534;2024-03-08T10:40:04;8.40;99.90
48988;DHT22;34799;51.440;-2.534;2024-03-08T10:42:43;8.50;99.90
48988;DHT22;34799;51.440;-2.534;2024-03-08T10:47:55;8.70;99.90
48988;DHT22;34799;51.440;-2.534;2024-03-08T10:50:26;8.90;99.90
48988;DHT22;34799;51.440;-2.534;2024-03-08T10:52:55;9.10;99.90
48988;DHT22;34799;51.440;-2.534;2024-03-08T10:55:25;8.90;99.90
48988;DHT22;34799;51.440;-2.534;2024-03-08T10:57:55;8.90;99.90
48988;DHT22;34799;51.440;-2.534;2024-03-08T11:00:22;8.70;99.90
48988;DHT22;34799;51.440;-2.534;2024-03-08T11:02:56;8.70;99.90
48988;DHT22;34799;51.440;-2.534;2024-03-08T11:05:40;8.90;99.90
48988;DHT22;34799;51.440;-2.534;2024-03-08T11:08:16;8.90;99.90
48988;DHT22;34799;51.440;-2.534;2024-03-08T11:10:53;9.20;99.90
48988;DHT22;34799;51.440;-2.534;2024-03-08T11:13:37;9.00;99.90
48988;DHT22;34799;51.440;-2.534;2024-03-08T11:16:11;9.00;99.90
48988;DHT22;34799;51.440;-2.534;2024-03-08T11:18:40;9.00;99.90
48988;DHT22;34799;51.440;-2.534;2024-03-08T11:21:10;8.70;99.90
48988;DHT22;34799;51.440;-2.534;2024-03-08T11:23:40;9.30;99.90
48988;DHT22;34799;51.440;-2.534;2024-03-08T11:26:20;9.40;99.90
48988;DHT22;34799;51.440;-2.534;2024-03-08T11:28:48;9.30;99.90
48988;DHT22;34799;51.440;-2.534;2024-03-08T11:31:23;9.00;99.90
48988;DHT22;34799;51.440;-2.534;2024-03-08T11:33:50;9.10;99.90
48988;DHT22;34799;51.440;-2.534;2024-03-08T11:36:22;9.10;99.90
48988;DHT22;34799;51.440;-2.534;2024-03-08T11:38:50;9.30;99.90
48988;DHT22;34799;51.440;-2.534;2024-03-08T11:41:20;9.20;99.90
48988;DHT22;34799;51.440;-2.534;2024-03-08T11:43:49;9.20;99.90
48988;DHT22;34799;51.440;-2.534;2024-03-08T11:46:18;9.30;99.90
48988;DHT22;34799;51.440;-2.534;2024-03-08T11:48:47;9.40;99.90
48988;DHT22;34799;51.440;-2.534;2024-03-08T11:51:15;9.50;99.90
48988;DHT22;34799;51.440;-2.534;2024-03-08T11:53:48;9.60;99.90
48988;DHT22;34799;51.440;-2.534;2024-03-08T11:56:16;9.60;99.90
48988;DHT22;34799;51.440;-2.534;2024-03-08T11:58:53;9.50;99.90
48988;DHT22;34799;51.440;-2.534;2024-03-08T12:01:24;10.10;99.90
48988;DHT22;34799;51.440;-2.534;2024-03-08T12:03:54;9.70;99.90
48988;DHT22;34799;51.440;-2.534;2024-03-08T12:06:23;9.80;99.90
48988;DHT22;34799;51.440;-2.534;2024-03-08T12:08:51;9.60;99.90
48988;DHT22;34799;51.440;-2.534;2024-03-08T12:11:18;9.40;99.90
48988;DHT22;34799;51.440;-2.534;2024-03-08T12:13:51;9.50;99.90
48988;DHT22;34799;51.440;-2.534;2024-03-08T12:16:18;9.30;99.90
48988;DHT22;34799;51.440;-2.534;2024-03-08T12:18:46;9.70;99.90
48988;DHT22;34799;51.440;-2.534;2024-03-08T12:23:44;10.70;99.90
48988;DHT22;34799;51.440;-2.534;2024-03-08T12:26:23;10.00;99.90
48988;DHT22;34799;51.440;-2.534;2024-03-08T12:28:51;10.20;99.90
48988;DHT22;34799;51.440;-2.534;2024-03-08T12:31:19;10.00;99.90
48988;DHT22;34799;51.440;-2.534;2024-03-08T12:33:54;10.30;99.90
48988;DHT22;34799;51.440;-2.534;2024-03-08T12:36:23;10.20;99.90
48988;DHT22;34799;51.440;-2.534;2024-03-08T12:38:51;10.40;99.90
48988;DHT22;34799;51.440;-2.534;2024-03-08T12:43:49;10.40;99.90
48988;DHT22;34799;51.440;-2.534;2024-03-08T12:46:18;10.00;99.90
48988;DHT22;34799;51.440;-2.534;2024-03-08T12:48:49;10.40;99.90
48988;DHT22;34799;51.440;-2.534;2024-03-08T12:51:18;10.70;99.90
48988;DHT22;34799;51.440;-2.534;2024-03-08T12:53:45;10.40;99.90
48988;DHT22;34799;51.440;-2.534;2024-03-08T12:56:31;10.60;99.90
48988;DHT22;34799;51.440;-2.534;2024-03-08T12:59:00;10.60;99.90
48988;DHT22;34799;51.440;-2.534;2024-03-08T13:03:56;10.80;99.90
48988;DHT22;34799;51.440;-2.534;2024-03-08T13:06:23;10.90;99.90
48988;DHT22;34799;51.440;-2.534;2024-03-08T13:08:51;10.90;99.90
48988;DHT22;34799;51.440;-2.534;2024-03-08T13:11:22;10.90;99.90
48988;DHT22;34799;51.440;-2.534;2024-03-08T13:13:52;10.90;99.90
48988;DHT22;34799;51.440;-2.534;2024-03-08T13:16:19;10.90;99.90
48988;DHT22;34799;51.440;-2.534;2024-03-08T13:18:47;10.80;99.90
48988;DHT22;34799;51.440;-2.534;2024-03-08T13:21:18;11.00;99.90
48988;DHT22;34799;51.440;-2.534;2024-03-08T13:23:46;11.00;99.90
48988;DHT22;34799;51.440;-2.534;2024-03-08T13:28:48;11.20;99.90
48988;DHT22;34799;51.440;-2.534;2024-03-08T13:31:23;11.00;99.90
48988;DHT22;34799;51.440;-2.534;2024-03-08T13:33:50;11.20;99.90
48988;DHT22;34799;51.440;-2.534;2024-03-08T13:36:19;11.30;99.90
48988;DHT22;34799;51.440;-2.534;2024-03-08T13:38:48;11.20;99.90
48988;DHT22;34799;51.440;-2.534;2024-03-08T13:41:17;11.10;99.90
48988;DHT22;34799;51.440;-2.534;2024-03-08T13:43:47;11.20;99.90
48988;DHT22;34799;51.440;-2.534;2024-03-08T13:46:18;11.30;99.90
48988;DHT22;34799;51.440;-2.534;2024-03-08T13:48:45;11.00;99.90
48988;DHT22;34799;51.440;-2.534;2024-03-08T13:51:13;10.90;99.90
48988;DHT22;34799;51.440;-2.534;2024-03-08T13:53:43;10.70;99.90
48988;DHT22;34799;51.440;-2.534;2024-03-08T13:56:12;11.00;99.90
48988;DHT22;34799;51.440;-2.534;2024-03-08T14:01:07;11.10;99.90
48988;DHT22;34799;51.440;-2.534;2024-03-08T14:03:38;10.70;99.90
48988;DHT22;34799;51.440;-2.534;2024-03-08T14:06:09;10.70;99.90
48988;DHT22;34799;51.440;-2.534;2024-03-08T14:08:36;10.90;99.90
48988;DHT22;34799;51.440;-2.534;2024-03-08T14:11:05;11.00;99.90
48988;DHT22;34799;51.440;-2.534;2024-03-08T14:13:43;11.90;99.90
48988;DHT22;34799;51.440;-2.534;2024-03-08T14:16:12;11.20;99.90
48988;DHT22;34799;51.440;-2.534;2024-03-08T14:18:40;11.20;99.90
48988;DHT22;34799;51.440;-2.534;2024-03-08T14:21:09;11.20;99.90
48988;DHT22;34799;51.440;-2.534;2024-03-08T14:23:37;11.00;99.90
48988;DHT22;34799;51.440;-2.534;2024-03-08T14:26:04;11.20;99.90
48988;DHT22;34799;51.440;-2.534;2024-03-08T14:28:34;11.40;99.90
48988;DHT22;34799;51.440;-2.534;2024-03-08T14:31:01;11.50;99.90
48988;DHT22;34799;51.440;-2.534;2024-03-08T14:33:32;11.90;99.90
48988;DHT22;34799;51.440;-2.534;2024-03-08T14:35:59;12.00;99.90
48988;DHT22;34799;51.440;-2.534;2024-03-08T14:38:28;12.10;99.90
48988;DHT22;34799;51.440;-2.534;2024-03-08T14:40:56;12.20;99.90
48988;DHT22;34799;51.440;-2.534;2024-03-08T14:43:23;12.20;99.90
48988;DHT22;34799;51.440;-2.534;2024-03-08T14:45:51;12.30;99.90
48988;DHT22;34799;51.440;-2.534;2024-03-08T14:48:19;12.50;99.90
48988;DHT22;34799;51.440;-2.534;2024-03-08T14:50:48;11.90;99.90
48988;DHT22;34799;51.440;-2.534;2024-03-08T14:53:15;11.70;99.90
48988;DHT22;34799;51.440;-2.534;2024-03-08T14:55:43;12.40;99.90
48988;DHT22;34799;51.440;-2.534;2024-03-08T14:58:13;11.90;99.90
48988;DHT22;34799;51.440;-2.534;2024-03-08T15:00:42;12.10;99.90
48988;DHT22;34799;51.440;-2.534;2024-03-08T15:03:10;11.80;99.90
48988;DHT22;34799;51.440;-2.534;2024-03-08T15:05:40;12.10;99.90
48988;DHT22;34799;51.440;-2.534;2024-03-08T15:08:14;11.90;99.90
48988;DHT22;34799;51.440;-2.534;2024-03-08T15:10:48;11.90;99.90
48988;DHT22;34799;51.440;-2.534;2024-03-08T15:13:21;11.30;99.90
48988;DHT22;34799;51.440;-2.534;2024-03-08T15:15:51;11.50;99.90
48988;DHT22;34799;51.440;-2.534;2024-03-08T15:18:26;11.70;99.90
48988;DHT22;34799;51.440;-2.534;2024-03-08T15:21:01;11.70;99.90
48988;DHT22;34799;51.440;-2.534;2024-03-08T15:23:30;11.80;99.90
48988;DHT22;34799;51.440;-2.534;2024-03-08T15:28:26;11.60;99.90
48988;DHT22;34799;51.440;-2.534;2024-03-08T15:31:04;11.60;99.90
48988;DHT22;34799;51.440;-2.534;2024-03-08T15:33:36;11.50;99.90
48988;DHT22;34799;51.440;-2.534;2024-03-08T15:36:11;11.40;99.90
48988;DHT22;34799;51.440;-2.534;2024-03-08T15:38:41;11.60;99.90
48988;DHT22;34799;51.440;-2.534;2024-03-08T15:41:08;11.30;99.90
48988;DHT22;34799;51.440;-2.534;2024-03-08T15:43:40;11.90;99.90
48988;DHT22;34799;51.440;-2.534;2024-03-08T15:46:08;11.70;99.90
48988;DHT22;34799;51.440;-2.534;2024-03-08T15:48:37;12.10;99.90
48988;DHT22;34799;51.440;-2.534;2024-03-08T15:51:04;11.90;99.90
48988;DHT22;34799;51.440;-2.534;2024-03-08T15:53:33;12.40;99.90
48988;DHT22;34799;51.440;-2.534;2024-03-08T15:56:07;12.20;99.90
48988;DHT22;34799;51.440;-2.534;2024-03-08T15:58:36;12.10;99.90
48988;DHT22;34799;51.440;-2.534;2024-03-08T16:01:04;12.00;99.90
48988;DHT22;34799;51.440;-2.534;2024-03-08T16:03:35;12.10;99.90
48988;DHT22;34799;51.440;-2.534;2024-03-08T16:06:03;12.20;99.90
48988;DHT22;34799;51.440;-2.534;2024-03-08T16:08:32;12.00;99.90
48988;DHT22;34799;51.440;-2.534;2024-03-08T16:11:05;12.10;99.90
48988;DHT22;34799;51.440;-2.534;2024-03-08T16:13:35;12.00;99.90
48988;DHT22;34799;51.440;-2.534;2024-03-08T16:16:06;11.60;99.90
48988;DHT22;34799;51.440;-2.534;2024-03-08T16:18:34;11.80;99.90
48988;DHT22;34799;51.440;-2.534;2024-03-08T16:21:05;11.80;99.90
48988;DHT22;34799;51.440;-2.534;2024-03-08T16:23:35;12.00;99.90
48988;DHT22;34799;51.440;-2.534;2024-03-08T16:26:04;11.70;99.90
48988;DHT22;34799;51.440;-2.534;2024-03-08T16:28:33;11.90;99.90
48988;DHT22;34799;51.440;-2.534;2024-03-08T16:31:10;11.80;99.90
48988;DHT22;34799;51.440;-2.534;2024-03-08T16:33:40;11.70;99.90
48988;DHT22;34799;51.440;-2.534;2024-03-08T16:36:09;11.50;99.90
48988;DHT22;34799;51.440;-2.534;2024-03-08T16:38:41;11.50;99.90
48988;DHT22;34799;51.440;-2.534;2024-03-08T16:41:12;11.30;99.90
48988;DHT22;34799;51.440;-2.534;2024-03-08T16:43:40;10.80;99.90
48988;DHT22;34799;51.440;-2.534;2024-03-08T16:46:11;11.00;99.90
48988;DHT22;34799;51.440;-2.534;2024-03-08T16:48:40;10.90;99.90
48988;DHT22;34799;51.440;-2.534;2024-03-08T16:51:09;11.00;99.90
48988;DHT22;34799;51.440;-2.534;2024-03-08T16:53:37;10.80;99.90
48988;DHT22;34799;51.440;-2.534;2024-03-08T16:56:08;11.20;99.90
48988;DHT22;34799;51.440;-2.534;2024-03-08T16:58:39;10.70;99.90
48988;DHT22;34799;51.440;-2.534;2024-03-08T17:01:12;10.70;99.90
48988;DHT22;34799;51.440;-2.534;2024-03-08T17:03:41;10.90;99.90
48988;DHT22;34799;51.440;-2.534;2024-03-08T17:06:11;10.80;99.90
48988;DHT22;34799;51.440;-2.534;2024-03-08T17:08:39;10.60;99.90
48988;DHT22;34799;51.440;-2.534;2024-03-08T17:11:08;10.40;99.90
48988;DHT22;34799;51.440;-2.534;2024-03-08T17:13:40;10.40;99.90
48988;DHT22;34799;51.440;-2.534;2024-03-08T17:16:08;10.20;99.90
48988;DHT22;34799;51.440;-2.534;2024-03-08T17:18:40;10.10;99.90
48988;DHT22;34799;51.440;-2.534;2024-03-08T17:21:09;10.20;99.90
48988;DHT22;34799;51.440;-2.534;2024-03-08T17:23:40;10.40;99.90
48988;DHT22;34799;51.440;-2.534;2024-03-08T17:26:09;10.00;99.90
48988;DHT22;34799;51.440;-2.534;2024-03-08T20:32:17;6.50;99.90
48988;DHT22;34799;51.440;-2.534;2024-03-08T20:34:51;6.80;99.90
48988;DHT22;34799;51.440;-2.534;2024-03-08T20:41:33;6.00;99.90
48988;DHT22;34799;51.440;-2.534;2024-03-08T20:46:55;6.90;99.90
48988;DHT22;34799;51.440;-2.534;2024-03-08T20:52:17;6.90;99.90
48988;DHT22;34799;51.440;-2.534;2024-03-08T20:55:29;6.80;99.90
48988;DHT22;34799;51.440;-2.534;2024-03-08T21:03:08;7.90;99.90
48988;DHT22;34799;51.440;-2.534;2024-03-08T21:08:12;7.00;99.90
48988;DHT22;34799;51.440;-2.534;2024-03-08T21:10:47;7.00;99.90
48988;DHT22;34799;51.440;-2.534;2024-03-08T21:13:17;7.00;99.90
48988;DHT22;34799;51.440;-2.534;2024-03-08T21:21:16;6.90;99.90
48988;DHT22;34799;51.440;-2.534;2024-03-08T21:29:08;6.90;99.90
48988;DHT22;34799;51.440;-2.534;2024-03-08T21:34:15;6.90;99.90
48988;DHT22;34799;51.440;-2.534;2024-03-08T21:42:34;6.80;99.90
48988;DHT22;34799;51.440;-2.534;2024-03-08T21:45:06;6.80;99.90
48988;DHT22;34799;51.440;-2.534;2024-03-08T21:50:13;7.10;99.90
48988;DHT22;34799;51.440;-2.534;2024-03-08T21:52:45;6.70;99.90
48988;DHT22;34799;51.440;-2.534;2024-03-08T21:55:41;6.60;99.90
48988;DHT22;34799;51.440;-2.534;2024-03-08T22:00:47;6.20;99.90
48988;DHT22;34799;51.440;-2.534;2024-03-08T22:03:23;6.70;99.90
48988;DHT22;34799;51.440;-2.534;2024-03-08T22:06:02;6.80;99.90
48988;DHT22;34799;51.440;-2.534;2024-03-08T22:08:49;6.70;99.90
48988;DHT22;34799;51.440;-2.534;2024-03-08T22:12:10;6.60;99.90
48988;DHT22;34799;51.440;-2.534;2024-03-08T22:20:10;6.80;99.90
48988;DHT22;34799;51.440;-2.534;2024-03-08T22:28:06;6.70;99.90
48988;DHT22;34799;51.440;-2.534;2024-03-08T22:31:09;6.70;99.90
48988;DHT22;34799;51.440;-2.534;2024-03-08T22:36:13;8.40;99.90
48988;DHT22;34799;51.440;-2.534;2024-03-08T22:41:17;6.60;99.90
48988;DHT22;34799;51.440;-2.534;2024-03-08T22:43:55;6.60;99.90
48988;DHT22;34799;51.440;-2.534;2024-03-08T22:49:14;6.50;99.90
48988;DHT22;34799;51.440;-2.534;2024-03-08T22:54:24;6.60;99.90
48988;DHT22;34799;51.440;-2.534;2024-03-08T23:10:15;6.60;99.90
48988;DHT22;34799;51.440;-2.534;2024-03-08T23:17:48;6.70;99.90
48988;DHT22;34799;51.440;-2.534;2024-03-08T23:20:29;6.90;99.90
48988;DHT22;34799;51.440;-2.534;2024-03-08T23:23:00;6.70;99.90
48988;DHT22;34799;51.440;-2.534;2024-03-08T23:28:12;6.70;99.90
48988;DHT22;34799;51.440;-2.534;2024-03-08T23:30:49;6.40;99.90
48988;DHT22;34799;51.440;-2.534;2024-03-08T23:38:26;8.50;99.90
48988;DHT22;34799;51.440;-2.534;2024-03-08T23:40:57;6.70;99.90
48988;DHT22;34799;51.440;-2.534;2024-03-08T23:48:29;7.50;99.90
48988;DHT22;34799;51.440;-2.534;2024-03-08T23:51:06;3.70;99.90
48988;DHT22;34799;51.440;-2.534;2024-03-08T23:53:38;6.60;99.90
48988;DHT22;34799;51.440;-2.534;2024-03-08T23:58:51;6.50;99.90
